Chem Sun — V7GW6 — position and weather

sailwx.info

Track history (hours):
 
Tides and Currents Weather Stations Pressure Air Temp Water Temp Dewpoint Dewpoint Depression Visibility Wind Speed Wind Dir Waves Ship Positions

Chem Sun

Last reported at 2018-May-06 08:57 UTC. Time now 2018-Jun-19 10:35 UTC.
Position N 20°45' E 069°49'.
Warning: this ship's position is 44 days out of date.

Length 96 m; draft 5.2 m.

Type: Tanker. MMSI: 538002185.

Date/timePositionNaut miles runAvg speedWind from/ knotsBaromVisibWave heightAir tempDewpointWater temp
2018-May-06 08:57N 20°45' E 069°49'712.4
2018-May-06 08:23N 20°42' E 069°55'512.2
2018-May-06 07:58N 20°40' E 070°00'612.2
2018-May-06 07:30N 20°38' E 070°06'612.3
2018-May-06 07:00N 20°36' E 070°12'612.4
2018-May-06 06:30N 20°34' E 070°19'612.5
2018-May-06 05:59N 20°32' E 070°25'612.6
2018-May-06 05:29N 20°31' E 070°32'712.7
2018-May-06 04:54N 20°29' E 070°39'512.8
2018-May-06 04:30N 20°28' E 070°45'712.9
2018-May-06 03:59N 20°26' E 070°52'612.8
2018-May-06 03:30N 20°24' E 070°58'812.6
2018-May-06 02:54N 20°23' E 071°06'1812.6
2018-May-06 01:28N 20°20' E 071°25'612.4
2018-May-06 00:59N 20°18' E 071°31'812.2
2018-May-06 00:19N 20°18' E 071°40'412.1
2018-May-05 23:57N 20°18' E 071°44'512.3
2018-May-05 23:30N 20°16' E 071°50'1011.9
2018-May-05 22:41N 20°14' E 071°60'211.6
2018-May-05 22:30N 20°14' E 072°02'611.1
2018-May-05 21:59N 20°12' E 072°08'510.6
2018-May-05 21:29N 20°13' E 072°13'611.9
2018-May-05 21:00N 20°17' E 072°18'612.2
2018-May-05 20:29N 20°21' E 072°23'2712.2
2018-May-05 18:16N 20°47' E 072°32'3 7.1
2018-May-05 17:51N 20°49' E 072°33'2 7.1
2018-May-05 17:30N 20°52' E 072°33'4 6.9
2018-May-05 16:59N 20°55' E 072°34'4 9.4
2018-May-05 16:30N 20°60' E 072°35'3 7.0
2018-May-05 16:00N 21°03' E 072°35'3 6.2
2018-May-05 15:30N 21°05' E 072°37'1 1.4
2018-May-05 14:58N 21°05' E 072°38'0 0.0
2018-May-05 14:28N 21°05' E 072°38'0 0.0
2018-May-05 13:58N 21°05' E 072°38'0 0.0
2018-May-05 13:22N 21°05' E 072°38'0 0.0
2018-May-05 12:58N 21°05' E 072°38'0 0.0
2018-May-05 12:28N 21°05' E 072°38'0 0.0
2018-May-05 11:58N 21°05' E 072°38'0 0.0
2018-May-05 11:28N 21°05' E 072°38'0 0.0
2018-May-05 10:46N 21°05' E 072°38'0 0.0
2018-May-05 10:22N 21°05' E 072°38'0 0.0
2018-May-05 09:58N 21°05' E 072°38'0 0.0
2018-May-05 09:28N 21°05' E 072°38'0 0.0
2018-May-05 08:58N 21°05' E 072°38'0 0.0
2018-May-05 08:22N 21°05' E 072°38'0 0.0
2018-May-05 07:58N 21°05' E 072°38'0 0.0
2018-May-05 07:28N 21°05' E 072°38'0 0.0
2018-May-05 06:58N 21°05' E 072°38'0 0.0
2018-May-05 06:28N 21°05' E 072°38'0 0.0
2018-May-05 05:58N 21°05' E 072°38'0 0.0
2018-May-05 05:28N 21°05' E 072°38'0 0.0
2018-May-05 04:58N 21°05' E 072°38'0 0.0
2018-May-05 04:28N 21°05' E 072°38'0 0.0
2018-May-05 03:58N 21°05' E 072°38'0 0.0
2018-May-05 03:22N 21°05' E 072°38'0 0.0
2018-May-05 02:58N 21°05' E 072°38'0 0.0
2018-May-05 02:28N 21°05' E 072°38'0 0.0
2018-May-05 01:58N 21°05' E 072°38'0 0.0
2018-May-05 01:28N 21°05' E 072°38'0 0.0
2018-May-05 00:52N 21°05' E 072°38'0 0.0
2018-May-05 00:28N 21°05' E 072°38'0 0.0
2018-May-04 23:58N 21°05' E 072°38'0 0.0
2018-May-04 23:28N 21°05' E 072°38'0 0.0
2018-May-04 22:58N 21°05' E 072°38'0 0.0
2018-May-04 22:28N 21°05' E 072°38'0 0.0
2018-May-04 21:58N 21°05' E 072°38'0 0.0
2018-May-04 21:22N 21°05' E 072°38'0 0.0
2018-May-04 20:58N 21°05' E 072°38'0 0.0
2018-May-04 20:10N 21°05' E 072°38'0 0.0
2018-May-04 19:58N 21°05' E 072°38'0 0.0
2018-May-04 19:28N 21°05' E 072°38'0 0.0
2018-May-04 18:52N 21°05' E 072°38'0 0.0
2018-May-04 18:28N 21°05' E 072°38'0 0.0
2018-May-04 17:58N 21°05' E 072°38'0 1.0
2018-May-04 17:30N 21°05' E 072°38'3 6.2
2018-May-04 17:00N 21°04' E 072°35'3 5.9
2018-May-04 16:30N 21°01' E 072°35'2 3.3
2018-May-04 16:00N 20°59' E 072°34'5 9.4
2018-May-04 15:30N 20°55' E 072°34'611.4
2018-May-04 15:00N 20°49' E 072°32'711.7
2018-May-04 14:24N 20°42' E 072°31'13 9.4
2018-May-04 13:00N 20°29' E 072°28'612.8
2018-May-04 12:30N 20°24' E 072°25'3 6.6
2018-May-04 12:00N 20°21' E 072°23'1014.1
2018-May-04 11:17N 20°15' E 072°14'515.0
2018-May-04 10:58N 20°13' E 072°09'715.2
2018-May-04 10:30N 20°12' E 072°02'815.5
2018-May-04 10:00N 20°09' E 071°54'915.3
2018-May-04 09:27N 20°08' E 071°45'715.1
2018-May-04 09:00N 20°08' E 071°38'915.4
2018-May-04 08:26N 20°05' E 071°29'715.1
2018-May-04 07:58N 20°03' E 071°22'714.5
2018-May-04 07:30N 20°03' E 071°15'5314.2
2018-May-04 03:47N 19°46' E 070°22'413.8
2018-May-04 03:29N 19°45' E 070°18'713.9
2018-May-04 02:58N 19°43' E 070°10'613.6
2018-May-04 02:30N 19°41' E 070°04'713.4
2018-May-04 02:00N 19°39' E 069°57'1013.4
2018-May-04 01:14N 19°35' E 069°47'413.4
2018-May-04 00:57N 19°34' E 069°43'613.5
2018-May-04 00:30N 19°32' E 069°37'913.5
2018-May-03 23:52N 19°30' E 069°28'713.5
2018-May-03 23:22N 19°28' E 069°22'614.0
2018-May-03 22:59N 19°26' E 069°16'713.9
2018-May-03 22:30N 19°24' E 069°09'713.7
2018-May-03 22:00N 19°22' E 069°02'813.9
2018-May-03 21:26N 19°19' E 068°55'814.2
2018-May-03 20:51N 19°16' E 068°46'513.9
2018-May-03 20:30N 19°15' E 068°41'713.8
2018-May-03 20:00N 19°13' E 068°35'713.9
2018-May-03 19:29N 19°10' E 068°27'713.8
2018-May-03 19:00N 19°08' E 068°21'713.6
2018-May-03 18:30N 19°06' E 068°14'713.5
2018-May-03 17:58N 19°04' E 068°06'613.5
2018-May-03 17:30N 19°02' E 068°00'713.6
2018-May-03 17:00N 19°00' E 067°53'713.9
2018-May-03 16:31N 18°58' E 067°46'1214.3
2018-May-03 15:39N 18°54' E 067°34'214.5
2018-May-03 15:30N 18°54' E 067°32'714.6
2018-May-03 15:01N 18°51' E 067°25'714.4
2018-May-03 14:30N 18°49' E 067°17'714.2
2018-May-03 13:59N 18°47' E 067°10'714.2
2018-May-03 13:28N 18°44' E 067°03'6414.2
2018-May-03 08:56N 18°24' E 065°58'614.0
2018-May-03 08:30N 18°23' E 065°52'713.9
2018-May-03 08:00N 18°21' E 065°45'714.0
2018-May-03 07:29N 18°18' E 065°38'713.9
2018-May-03 07:00N 18°16' E 065°31'713.6
2018-May-03 06:30N 18°14' E 065°24'713.5
2018-May-03 06:00N 18°12' E 065°18'2113.6
2018-May-03 04:29N 18°05' E 064°57'713.7
2018-May-03 03:58N 18°03' E 064°50'613.7
2018-May-03 03:30N 18°01' E 064°43'713.8
2018-May-03 03:00N 17°60' E 064°37'813.9
2018-May-03 02:24N 17°57' E 064°28'614.1
2018-May-03 01:59N 17°55' E 064°22'713.9
2018-May-03 01:30N 17°53' E 064°16'714.0
2018-May-03 01:00N 17°51' E 064°08'1214.0
2018-May-03 00:10N 17°47' E 063°57'313.8
2018-May-02 23:57N 17°46' E 063°54'713.9
2018-May-02 23:28N 17°44' E 063°47'1313.7
2018-May-02 22:33N 17°40' E 063°35'413.8
2018-May-02 22:15N 17°39' E 063°31'314.0
2018-May-02 22:00N 17°38' E 063°27'1013.8
2018-May-02 21:15N 17°34' E 063°17'2413.6
2018-May-02 19:30N 17°27' E 062°53'1013.7
2018-May-02 18:47N 17°24' E 062°43'3513.6
2018-May-02 16:13N 17°13' E 062°08'413.7
2018-May-02 15:55N 17°12' E 062°05'3013.8
2018-May-02 13:44N 17°03' E 061°34'413.9
2018-May-02 13:26N 17°01' E 061°30'2113.8
2018-May-02 11:53N 16°54' E 061°09'613.9
2018-May-02 11:28N 16°53' E 061°03'2914.1
2018-May-02 09:23N 16°43' E 060°34'  
Track history (hours):
 
Tides and Currents Weather Stations Pressure Air Temp Water Temp Dewpoint Dewpoint Depression Visibility Wind Speed Wind Dir Waves Ship Positions

Chem Sun

Last reported at 2018-May-06 08:57 UTC. Time now 2018-Jun-19 10:35 UTC.
Position N 20°45' E 069°49'.
Warning: this ship's position is 44 days out of date.

Length 96 m; draft 5.2 m.

Type: Tanker. MMSI: 538002185.

Date/timePositionNaut miles runAvg speedWind from/ knotsBaromVisibWave heightAir tempDewpointWater temp
2018-May-06 08:57N 20°45' E 069°49'712.4
2018-May-06 08:23N 20°42' E 069°55'512.2
2018-May-06 07:58N 20°40' E 070°00'612.2
2018-May-06 07:30N 20°38' E 070°06'612.3
2018-May-06 07:00N 20°36' E 070°12'612.4
2018-May-06 06:30N 20°34' E 070°19'612.5
2018-May-06 05:59N 20°32' E 070°25'612.6
2018-May-06 05:29N 20°31' E 070°32'712.7
2018-May-06 04:54N 20°29' E 070°39'512.8
2018-May-06 04:30N 20°28' E 070°45'712.9
2018-May-06 03:59N 20°26' E 070°52'612.8
2018-May-06 03:30N 20°24' E 070°58'812.6
2018-May-06 02:54N 20°23' E 071°06'1812.6
2018-May-06 01:28N 20°20' E 071°25'612.4
2018-May-06 00:59N 20°18' E 071°31'812.2
2018-May-06 00:19N 20°18' E 071°40'412.1
2018-May-05 23:57N 20°18' E 071°44'512.3
2018-May-05 23:30N 20°16' E 071°50'1011.9
2018-May-05 22:41N 20°14' E 071°60'211.6
2018-May-05 22:30N 20°14' E 072°02'611.1
2018-May-05 21:59N 20°12' E 072°08'510.6
2018-May-05 21:29N 20°13' E 072°13'611.9
2018-May-05 21:00N 20°17' E 072°18'612.2
2018-May-05 20:29N 20°21' E 072°23'2712.2
2018-May-05 18:16N 20°47' E 072°32'3 7.1
2018-May-05 17:51N 20°49' E 072°33'2 7.1
2018-May-05 17:30N 20°52' E 072°33'4 6.9
2018-May-05 16:59N 20°55' E 072°34'4 9.4
2018-May-05 16:30N 20°60' E 072°35'3 7.0
2018-May-05 16:00N 21°03' E 072°35'3 6.2
2018-May-05 15:30N 21°05' E 072°37'1 1.4
2018-May-05 14:58N 21°05' E 072°38'0 0.0
2018-May-05 14:28N 21°05' E 072°38'0 0.0
2018-May-05 13:58N 21°05' E 072°38'0 0.0
2018-May-05 13:22N 21°05' E 072°38'0 0.0
2018-May-05 12:58N 21°05' E 072°38'0 0.0
2018-May-05 12:28N 21°05' E 072°38'0 0.0
2018-May-05 11:58N 21°05' E 072°38'0 0.0
2018-May-05 11:28N 21°05' E 072°38'0 0.0
2018-May-05 10:46N 21°05' E 072°38'0 0.0
2018-May-05 10:22N 21°05' E 072°38'0 0.0
2018-May-05 09:58N 21°05' E 072°38'0 0.0
2018-May-05 09:28N 21°05' E 072°38'0 0.0
2018-May-05 08:58N 21°05' E 072°38'0 0.0
2018-May-05 08:22N 21°05' E 072°38'0 0.0
2018-May-05 07:58N 21°05' E 072°38'0 0.0
2018-May-05 07:28N 21°05' E 072°38'0 0.0
2018-May-05 06:58N 21°05' E 072°38'0 0.0
2018-May-05 06:28N 21°05' E 072°38'0 0.0
2018-May-05 05:58N 21°05' E 072°38'0 0.0
2018-May-05 05:28N 21°05' E 072°38'0 0.0
2018-May-05 04:58N 21°05' E 072°38'0 0.0
2018-May-05 04:28N 21°05' E 072°38'0 0.0
2018-May-05 03:58N 21°05' E 072°38'0 0.0
2018-May-05 03:22N 21°05' E 072°38'0 0.0
2018-May-05 02:58N 21°05' E 072°38'0 0.0
2018-May-05 02:28N 21°05' E 072°38'0 0.0
2018-May-05 01:58N 21°05' E 072°38'0 0.0
2018-May-05 01:28N 21°05' E 072°38'0 0.0
2018-May-05 00:52N 21°05' E 072°38'0 0.0
2018-May-05 00:28N 21°05' E 072°38'0 0.0
2018-May-04 23:58N 21°05' E 072°38'0 0.0
2018-May-04 23:28N 21°05' E 072°38'0 0.0
2018-May-04 22:58N 21°05' E 072°38'0 0.0
2018-May-04 22:28N 21°05' E 072°38'0 0.0
2018-May-04 21:58N 21°05' E 072°38'0 0.0
2018-May-04 21:22N 21°05' E 072°38'0 0.0
2018-May-04 20:58N 21°05' E 072°38'0 0.0
2018-May-04 20:10N 21°05' E 072°38'0 0.0
2018-May-04 19:58N 21°05' E 072°38'0 0.0
2018-May-04 19:28N 21°05' E 072°38'0 0.0
2018-May-04 18:52N 21°05' E 072°38'0 0.0
2018-May-04 18:28N 21°05' E 072°38'0 0.0
2018-May-04 17:58N 21°05' E 072°38'0 1.0
2018-May-04 17:30N 21°05' E 072°38'3 6.2
2018-May-04 17:00N 21°04' E 072°35'3 5.9
2018-May-04 16:30N 21°01' E 072°35'2 3.3
2018-May-04 16:00N 20°59' E 072°34'5 9.4
2018-May-04 15:30N 20°55' E 072°34'611.4
2018-May-04 15:00N 20°49' E 072°32'711.7
2018-May-04 14:24N 20°42' E 072°31'13 9.4
2018-May-04 13:00N 20°29' E 072°28'612.8
2018-May-04 12:30N 20°24' E 072°25'3 6.6
2018-May-04 12:00N 20°21' E 072°23'1014.1
2018-May-04 11:17N 20°15' E 072°14'515.0
2018-May-04 10:58N 20°13' E 072°09'715.2
2018-May-04 10:30N 20°12' E 072°02'815.5
2018-May-04 10:00N 20°09' E 071°54'915.3
2018-May-04 09:27N 20°08' E 071°45'715.1
2018-May-04 09:00N 20°08' E 071°38'915.4
2018-May-04 08:26N 20°05' E 071°29'715.1
2018-May-04 07:58N 20°03' E 071°22'714.5
2018-May-04 07:30N 20°03' E 071°15'5314.2
2018-May-04 03:47N 19°46' E 070°22'413.8
2018-May-04 03:29N 19°45' E 070°18'713.9
2018-May-04 02:58N 19°43' E 070°10'613.6
2018-May-04 02:30N 19°41' E 070°04'713.4
2018-May-04 02:00N 19°39' E 069°57'1013.4
2018-May-04 01:14N 19°35' E 069°47'413.4
2018-May-04 00:57N 19°34' E 069°43'613.5
2018-May-04 00:30N 19°32' E 069°37'913.5
2018-May-03 23:52N 19°30' E 069°28'713.5
2018-May-03 23:22N 19°28' E 069°22'614.0
2018-May-03 22:59N 19°26' E 069°16'713.9
2018-May-03 22:30N 19°24' E 069°09'713.7
2018-May-03 22:00N 19°22' E 069°02'813.9
2018-May-03 21:26N 19°19' E 068°55'814.2
2018-May-03 20:51N 19°16' E 068°46'513.9
2018-May-03 20:30N 19°15' E 068°41'713.8
2018-May-03 20:00N 19°13' E 068°35'713.9
2018-May-03 19:29N 19°10' E 068°27'713.8
2018-May-03 19:00N 19°08' E 068°21'713.6
2018-May-03 18:30N 19°06' E 068°14'713.5
2018-May-03 17:58N 19°04' E 068°06'613.5
2018-May-03 17:30N 19°02' E 068°00'713.6
2018-May-03 17:00N 19°00' E 067°53'713.9
2018-May-03 16:31N 18°58' E 067°46'1214.3
2018-May-03 15:39N 18°54' E 067°34'214.5
2018-May-03 15:30N 18°54' E 067°32'714.6
2018-May-03 15:01N 18°51' E 067°25'714.4
2018-May-03 14:30N 18°49' E 067°17'714.2
2018-May-03 13:59N 18°47' E 067°10'714.2
2018-May-03 13:28N 18°44' E 067°03'6414.2
2018-May-03 08:56N 18°24' E 065°58'614.0
2018-May-03 08:30N 18°23' E 065°52'713.9
2018-May-03 08:00N 18°21' E 065°45'714.0
2018-May-03 07:29N 18°18' E 065°38'713.9
2018-May-03 07:00N 18°16' E 065°31'713.6
2018-May-03 06:30N 18°14' E 065°24'713.5
2018-May-03 06:00N 18°12' E 065°18'2113.6
2018-May-03 04:29N 18°05' E 064°57'713.7
2018-May-03 03:58N 18°03' E 064°50'613.7
2018-May-03 03:30N 18°01' E 064°43'713.8
2018-May-03 03:00N 17°60' E 064°37'813.9
2018-May-03 02:24N 17°57' E 064°28'614.1
2018-May-03 01:59N 17°55' E 064°22'713.9
2018-May-03 01:30N 17°53' E 064°16'714.0
2018-May-03 01:00N 17°51' E 064°08'1214.0
2018-May-03 00:10N 17°47' E 063°57'313.8
2018-May-02 23:57N 17°46' E 063°54'713.9
2018-May-02 23:28N 17°44' E 063°47'1313.7
2018-May-02 22:33N 17°40' E 063°35'413.8
2018-May-02 22:15N 17°39' E 063°31'314.0
2018-May-02 22:00N 17°38' E 063°27'1013.8
2018-May-02 21:15N 17°34' E 063°17'2413.6
2018-May-02 19:30N 17°27' E 062°53'1013.7
2018-May-02 18:47N 17°24' E 062°43'3513.6
2018-May-02 16:13N 17°13' E 062°08'413.7
2018-May-02 15:55N 17°12' E 062°05'3013.8
2018-May-02 13:44N 17°03' E 061°34'413.9
2018-May-02 13:26N 17°01' E 061°30'2113.8
2018-May-02 11:53N 16°54' E 061°09'613.9
2018-May-02 11:28N 16°53' E 061°03'2914.1
2018-May-02 09:23N 16°43' E 060°34'  

Dump ship's entire track history